LFBZ/BIQ METAR and TAF weather

Enter ICAO airport designator
Station Type Date Time Source
LFBZ METAR 2019/06/27 04:00 UTC NOAA

LFBZ 270400Z AUTO VRB02KT 9999 FEW008 18/17 Q1018 BECMG BKN007


Station Type Date Time Source
LFBZ Decoded METAR 2019/06/27 04:00 UTC NOAA

Biarritz, France (LFBZ) 43-28N 001-32W 71M
Jun 27, 2019 - 12:00 AM EDT / 2019.06.27 0400 UTC
Wind: Variable at 2 MPH (2 KT):0
Visibility: greater than 7 mile(s):0
Sky conditions: mostly clear
Temperature: 64 F (18 C)
Dew Point: 62 F (17 C)
Relative Humidity: 93%
Pressure (altimeter): 30.06 in. Hg (1018 hPa)
ob: LFBZ 270400Z AUTO VRB02KT 9999 FEW008 18/17 Q1018 BECMG BKN007
cycle: 4

Station Type Date Time Source
LFBZ TAF 2019/06/27 02:59 UTC NOAA

TAF
AMD LFBZ 270252Z 2702/2724 26008KT 9999 BKN007
BECMG 2704/2706 VRB03KT
BECMG 2706/2708 08012KT CAVOK
TEMPO 2712/2718 09015G25KT
BECMG 2718/2720 27015KT BKN005
TEMPO 2720/2722 26015G35KT

Example: see airport list